sensor_id;sensor_type;location;lat;lon;timestamp;P1;durP1;ratioP1;P2;durP2;ratioP2
51866;SDS011;52862;52.504;13.480;2023-01-25T00:01:02;35.37;;;17.33;;
51866;SDS011;52862;52.504;13.480;2023-01-25T00:03:30;36.87;;;16.30;;
51866;SDS011;52862;52.504;13.480;2023-01-25T00:05:59;34.27;;;16.17;;
51866;SDS011;52862;52.504;13.480;2023-01-25T00:08:27;39.83;;;18.13;;
51866;SDS011;52862;52.504;13.480;2023-01-25T00:10:53;36.17;;;17.33;;
51866;SDS011;52862;52.504;13.480;2023-01-25T00:13:23;40.60;;;17.03;;
51866;SDS011;52862;52.504;13.480;2023-01-25T00:15:50;34.73;;;16.70;;
51866;SDS011;52862;52.504;13.480;2023-01-25T00:18:18;43.50;;;16.90;;
51866;SDS011;52862;52.504;13.480;2023-01-25T00:20:44;35.07;;;16.47;;
51866;SDS011;52862;52.504;13.480;2023-01-25T00:23:11;38.50;;;17.13;;
51866;SDS011;52862;52.504;13.480;2023-01-25T00:25:38;42.60;;;17.93;;
51866;SDS011;52862;52.504;13.480;2023-01-25T00:28:04;36.47;;;16.57;;
51866;SDS011;52862;52.504;13.480;2023-01-25T00:30:31;50.40;;;18.23;;
51866;SDS011;52862;52.504;13.480;2023-01-25T00:33:01;43.20;;;18.70;;
51866;SDS011;52862;52.504;13.480;2023-01-25T00:35:32;39.13;;;17.13;;
51866;SDS011;52862;52.504;13.480;2023-01-25T00:38:00;41.70;;;18.23;;
51866;SDS011;52862;52.504;13.480;2023-01-25T00:40:27;41.57;;;16.80;;
51866;SDS011;52862;52.504;13.480;2023-01-25T00:42:54;36.77;;;17.07;;
51866;SDS011;52862;52.504;13.480;2023-01-25T00:45:21;36.03;;;16.57;;
51866;SDS011;52862;52.504;13.480;2023-01-25T00:47:47;40.63;;;18.43;;
51866;SDS011;52862;52.504;13.480;2023-01-25T00:50:15;39.27;;;17.60;;
51866;SDS011;52862;52.504;13.480;2023-01-25T00:52:42;35.67;;;18.63;;
51866;SDS011;52862;52.504;13.480;2023-01-25T00:55:09;42.87;;;18.27;;
51866;SDS011;52862;52.504;13.480;2023-01-25T00:57:35;41.20;;;17.50;;
51866;SDS011;52862;52.504;13.480;2023-01-25T01:00:02;40.03;;;17.63;;
51866;SDS011;52862;52.504;13.480;2023-01-25T01:02:30;42.67;;;18.57;;
51866;SDS011;52862;52.504;13.480;2023-01-25T01:04:56;44.03;;;18.53;;
51866;SDS011;52862;52.504;13.480;2023-01-25T01:07:23;37.80;;;17.57;;
51866;SDS011;52862;52.504;13.480;2023-01-25T01:09:50;38.63;;;17.50;;
51866;SDS011;52862;52.504;13.480;2023-01-25T01:12:17;41.90;;;17.07;;
51866;SDS011;52862;52.504;13.480;2023-01-25T01:14:44;41.40;;;17.57;;
51866;SDS011;52862;52.504;13.480;2023-01-25T01:17:11;44.90;;;19.33;;
51866;SDS011;52862;52.504;13.480;2023-01-25T01:19:38;58.17;;;21.77;;
51866;SDS011;52862;52.504;13.480;2023-01-25T01:22:04;50.37;;;20.87;;
51866;SDS011;52862;52.504;13.480;2023-01-25T01:24:31;54.33;;;19.77;;
51866;SDS011;52862;52.504;13.480;2023-01-25T01:26:58;41.90;;;18.17;;
51866;SDS011;52862;52.504;13.480;2023-01-25T01:29:25;43.47;;;18.40;;
51866;SDS011;52862;52.504;13.480;2023-01-25T01:31:54;41.97;;;17.77;;
51866;SDS011;52862;52.504;13.480;2023-01-25T01:34:22;40.07;;;18.00;;
51866;SDS011;52862;52.504;13.480;2023-01-25T01:36:48;42.60;;;18.40;;
51866;SDS011;52862;52.504;13.480;2023-01-25T01:39:15;39.40;;;18.07;;
51866;SDS011;52862;52.504;13.480;2023-01-25T01:41:42;40.10;;;19.70;;
51866;SDS011;52862;52.504;13.480;2023-01-25T01:44:13;43.20;;;19.13;;
51866;SDS011;52862;52.504;13.480;2023-01-25T01:46:43;45.90;;;18.93;;
51866;SDS011;52862;52.504;13.480;2023-01-25T01:49:15;44.63;;;19.67;;
51866;SDS011;52862;52.504;13.480;2023-01-25T01:51:45;39.83;;;19.77;;
51866;SDS011;52862;52.504;13.480;2023-01-25T01:54:14;40.17;;;19.03;;
51866;SDS011;52862;52.504;13.480;2023-01-25T01:56:45;44.97;;;19.53;;
51866;SDS011;52862;52.504;13.480;2023-01-25T01:59:17;35.70;;;18.47;;
51866;SDS011;52862;52.504;13.480;2023-01-25T02:01:46;43.97;;;19.77;;
51866;SDS011;52862;52.504;13.480;2023-01-25T02:04:13;40.13;;;19.10;;
51866;SDS011;52862;52.504;13.480;2023-01-25T02:06:44;45.40;;;19.60;;
51866;SDS011;52862;52.504;13.480;2023-01-25T02:09:15;45.50;;;21.53;;
51866;SDS011;52862;52.504;13.480;2023-01-25T02:11:44;45.87;;;20.37;;
51866;SDS011;52862;52.504;13.480;2023-01-25T02:14:13;41.73;;;19.63;;
51866;SDS011;52862;52.504;13.480;2023-01-25T02:16:41;50.70;;;19.80;;
51866;SDS011;52862;52.504;13.480;2023-01-25T02:19:08;46.40;;;20.20;;
51866;SDS011;52862;52.504;13.480;2023-01-25T02:21:42;53.20;;;21.20;;
51866;SDS011;52862;52.504;13.480;2023-01-25T02:24:11;51.03;;;21.37;;
51866;SDS011;52862;52.504;13.480;2023-01-25T02:26:43;41.77;;;20.57;;
51866;SDS011;52862;52.504;13.480;2023-01-25T02:29:10;49.20;;;21.57;;
51866;SDS011;52862;52.504;13.480;2023-01-25T02:31:38;53.67;;;20.43;;
51866;SDS011;52862;52.504;13.480;2023-01-25T02:34:04;46.37;;;20.17;;
51866;SDS011;52862;52.504;13.480;2023-01-25T02:36:31;55.30;;;21.80;;
51866;SDS011;52862;52.504;13.480;2023-01-25T02:39:00;49.60;;;20.97;;
51866;SDS011;52862;52.504;13.480;2023-01-25T02:41:32;59.97;;;22.07;;
51866;SDS011;52862;52.504;13.480;2023-01-25T02:44:01;48.13;;;22.30;;
51866;SDS011;52862;52.504;13.480;2023-01-25T02:46:30;54.70;;;21.67;;
51866;SDS011;52862;52.504;13.480;2023-01-25T02:48:59;48.87;;;21.33;;
51866;SDS011;52862;52.504;13.480;2023-01-25T02:51:27;52.13;;;22.70;;
51866;SDS011;52862;52.504;13.480;2023-01-25T02:53:56;42.93;;;20.57;;
51866;SDS011;52862;52.504;13.480;2023-01-25T02:56:23;52.70;;;22.40;;
51866;SDS011;52862;52.504;13.480;2023-01-25T02:58:52;46.20;;;22.23;;
51866;SDS011;52862;52.504;13.480;2023-01-25T03:01:19;50.27;;;21.50;;
51866;SDS011;52862;52.504;13.480;2023-01-25T03:03:46;53.20;;;22.00;;
51866;SDS011;52862;52.504;13.480;2023-01-25T03:06:13;48.33;;;21.87;;
51866;SDS011;52862;52.504;13.480;2023-01-25T03:08:40;47.17;;;21.77;;
51866;SDS011;52862;52.504;13.480;2023-01-25T03:11:06;52.80;;;22.13;;
51866;SDS011;52862;52.504;13.480;2023-01-25T03:13:33;52.73;;;23.03;;
51866;SDS011;52862;52.504;13.480;2023-01-25T03:16:01;49.00;;;22.40;;
51866;SDS011;52862;52.504;13.480;2023-01-25T03:18:31;52.43;;;21.93;;
51866;SDS011;52862;52.504;13.480;2023-01-25T03:21:02;44.77;;;20.93;;
51866;SDS011;52862;52.504;13.480;2023-01-25T03:23:30;42.57;;;19.97;;
51866;SDS011;52862;52.504;13.480;2023-01-25T03:26:02;48.70;;;20.57;;
51866;SDS011;52862;52.504;13.480;2023-01-25T03:28:30;44.53;;;21.07;;
51866;SDS011;52862;52.504;13.480;2023-01-25T03:30:57;50.67;;;21.03;;
51866;SDS011;52862;52.504;13.480;2023-01-25T03:33:24;45.60;;;21.57;;
51866;SDS011;52862;52.504;13.480;2023-01-25T03:35:51;50.10;;;20.73;;
51866;SDS011;52862;52.504;13.480;2023-01-25T03:38:18;49.10;;;21.00;;
51866;SDS011;52862;52.504;13.480;2023-01-25T03:40:45;49.63;;;21.57;;
51866;SDS011;52862;52.504;13.480;2023-01-25T03:43:12;46.63;;;21.30;;
51866;SDS011;52862;52.504;13.480;2023-01-25T03:45:38;41.00;;;20.27;;
51866;SDS011;52862;52.504;13.480;2023-01-25T03:48:05;49.20;;;20.83;;
51866;SDS011;52862;52.504;13.480;2023-01-25T03:50:32;54.47;;;21.83;;
51866;SDS011;52862;52.504;13.480;2023-01-25T03:52:59;53.30;;;21.87;;
51866;SDS011;52862;52.504;13.480;2023-01-25T03:55:31;50.13;;;23.03;;
51866;SDS011;52862;52.504;13.480;2023-01-25T03:57:58;70.33;;;30.27;;
51866;SDS011;52862;52.504;13.480;2023-01-25T04:00:25;65.17;;;27.07;;
51866;SDS011;52862;52.504;13.480;2023-01-25T04:02:51;61.50;;;24.63;;
51866;SDS011;52862;52.504;13.480;2023-01-25T04:05:18;54.53;;;23.37;;
51866;SDS011;52862;52.504;13.480;2023-01-25T04:07:45;55.80;;;23.10;;
51866;SDS011;52862;52.504;13.480;2023-01-25T04:10:12;52.37;;;23.87;;
51866;SDS011;52862;52.504;13.480;2023-01-25T04:12:39;65.67;;;23.40;;
51866;SDS011;52862;52.504;13.480;2023-01-25T04:15:06;55.20;;;24.20;;
51866;SDS011;52862;52.504;13.480;2023-01-25T04:17:34;63.83;;;23.40;;
51866;SDS011;52862;52.504;13.480;2023-01-25T04:20:01;62.10;;;24.10;;
51866;SDS011;52862;52.504;13.480;2023-01-25T04:22:28;61.33;;;22.93;;
51866;SDS011;52862;52.504;13.480;2023-01-25T04:24:54;59.97;;;24.33;;
51866;SDS011;52862;52.504;13.480;2023-01-25T04:27:22;51.53;;;22.53;;
51866;SDS011;52862;52.504;13.480;2023-01-25T04:29:50;52.20;;;22.70;;
51866;SDS011;52862;52.504;13.480;2023-01-25T04:32:17;52.57;;;22.43;;
51866;SDS011;52862;52.504;13.480;2023-01-25T04:34:44;68.63;;;23.30;;
51866;SDS011;52862;52.504;13.480;2023-01-25T04:37:11;55.13;;;21.97;;
51866;SDS011;52862;52.504;13.480;2023-01-25T04:39:37;47.27;;;21.63;;
51866;SDS011;52862;52.504;13.480;2023-01-25T04:42:04;51.50;;;21.97;;
51866;SDS011;52862;52.504;13.480;2023-01-25T04:44:31;41.77;;;20.60;;
51866;SDS011;52862;52.504;13.480;2023-01-25T04:46:58;48.03;;;21.73;;
51866;SDS011;52862;52.504;13.480;2023-01-25T04:49:24;49.03;;;20.33;;
51866;SDS011;52862;52.504;13.480;2023-01-25T04:51:51;41.80;;;18.93;;
51866;SDS011;52862;52.504;13.480;2023-01-25T04:54:18;39.40;;;18.57;;
51866;SDS011;52862;52.504;13.480;2023-01-25T04:56:45;44.73;;;20.37;;
51866;SDS011;52862;52.504;13.480;2023-01-25T04:59:11;38.97;;;18.03;;
51866;SDS011;52862;52.504;13.480;2023-01-25T05:01:39;41.97;;;18.37;;
51866;SDS011;52862;52.504;13.480;2023-01-25T05:04:05;37.87;;;16.80;;
51866;SDS011;52862;52.504;13.480;2023-01-25T05:06:32;42.40;;;16.77;;
51866;SDS011;52862;52.504;13.480;2023-01-25T05:08:59;35.67;;;16.30;;
51866;SDS011;52862;52.504;13.480;2023-01-25T05:11:26;34.13;;;14.07;;
51866;SDS011;52862;52.504;13.480;2023-01-25T05:13:53;36.83;;;15.20;;
51866;SDS011;52862;52.504;13.480;2023-01-25T05:16:20;38.37;;;16.93;;
51866;SDS011;52862;52.504;13.480;2023-01-25T05:18:47;34.03;;;16.10;;
51866;SDS011;52862;52.504;13.480;2023-01-25T05:21:14;32.00;;;15.00;;
51866;SDS011;52862;52.504;13.480;2023-01-25T05:23:56;39.80;;;18.83;;
51866;SDS011;52862;52.504;13.480;2023-01-25T05:26:23;43.13;;;16.70;;
51866;SDS011;52862;52.504;13.480;2023-01-25T05:29:08;28.73;;;10.50;;
51866;SDS011;52862;52.504;13.480;2023-01-25T05:31:35;30.77;;;14.83;;
51866;SDS011;52862;52.504;13.480;2023-01-25T05:34:02;26.37;;;12.93;;
51866;SDS011;52862;52.504;13.480;2023-01-25T05:36:28;32.07;;;14.07;;
51866;SDS011;52862;52.504;13.480;2023-01-25T05:38:55;36.80;;;14.33;;
51866;SDS011;52862;52.504;13.480;2023-01-25T05:41:22;35.63;;;14.00;;
51866;SDS011;52862;52.504;13.480;2023-01-25T05:43:49;22.40;;;10.40;;
51866;SDS011;52862;52.504;13.480;2023-01-25T05:46:15;27.60;;;11.93;;
51866;SDS011;52862;52.504;13.480;2023-01-25T05:48:42;32.97;;;13.50;;
51866;SDS011;52862;52.504;13.480;2023-01-25T05:51:10;24.93;;;11.60;;
51866;SDS011;52862;52.504;13.480;2023-01-25T05:53:36;27.53;;;11.50;;
51866;SDS011;52862;52.504;13.480;2023-01-25T05:56:03;32.57;;;13.90;;
51866;SDS011;52862;52.504;13.480;2023-01-25T05:58:30;34.30;;;14.70;;
51866;SDS011;52862;52.504;13.480;2023-01-25T06:00:58;32.87;;;13.50;;
51866;SDS011;52862;52.504;13.480;2023-01-25T06:03:27;31.53;;;13.10;;
51866;SDS011;52862;52.504;13.480;2023-01-25T06:05:54;32.53;;;13.70;;
51866;SDS011;52862;52.504;13.480;2023-01-25T06:08:21;30.83;;;13.93;;
51866;SDS011;52862;52.504;13.480;2023-01-25T06:10:48;21.47;;;9.97;;
51866;SDS011;52862;52.504;13.480;2023-01-25T06:13:15;31.13;;;13.47;;
51866;SDS011;52862;52.504;13.480;2023-01-25T06:15:41;34.03;;;14.13;;
51866;SDS011;52862;52.504;13.480;2023-01-25T06:18:08;26.03;;;13.63;;
51866;SDS011;52862;52.504;13.480;2023-01-25T06:20:35;35.33;;;15.17;;
51866;SDS011;52862;52.504;13.480;2023-01-25T06:23:02;31.97;;;13.23;;
51866;SDS011;52862;52.504;13.480;2023-01-25T06:25:29;25.37;;;12.27;;
51866;SDS011;52862;52.504;13.480;2023-01-25T06:27:56;29.00;;;11.73;;
51866;SDS011;52862;52.504;13.480;2023-01-25T06:30:23;26.60;;;12.53;;
51866;SDS011;52862;52.504;13.480;2023-01-25T06:32:49;26.43;;;11.13;;
51866;SDS011;52862;52.504;13.480;2023-01-25T06:35:16;29.47;;;12.50;;
51866;SDS011;52862;52.504;13.480;2023-01-25T06:37:43;32.60;;;13.10;;
51866;SDS011;52862;52.504;13.480;2023-01-25T06:40:10;25.50;;;12.83;;
51866;SDS011;52862;52.504;13.480;2023-01-25T06:42:38;32.73;;;13.73;;
51866;SDS011;52862;52.504;13.480;2023-01-25T06:45:05;28.63;;;14.33;;
51866;SDS011;52862;52.504;13.480;2023-01-25T06:47:33;26.47;;;12.63;;
51866;SDS011;52862;52.504;13.480;2023-01-25T06:50:00;30.37;;;14.10;;
51866;SDS011;52862;52.504;13.480;2023-01-25T06:52:27;24.93;;;12.37;;
51866;SDS011;52862;52.504;13.480;2023-01-25T06:54:55;26.43;;;12.03;;
51866;SDS011;52862;52.504;13.480;2023-01-25T06:57:22;30.77;;;12.30;;
51866;SDS011;52862;52.504;13.480;2023-01-25T06:59:49;29.93;;;13.87;;
51866;SDS011;52862;52.504;13.480;2023-01-25T07:02:16;28.20;;;12.63;;
51866;SDS011;52862;52.504;13.480;2023-01-25T07:04:42;31.60;;;13.13;;
51866;SDS011;52862;52.504;13.480;2023-01-25T07:07:09;34.33;;;14.03;;
51866;SDS011;52862;52.504;13.480;2023-01-25T07:09:36;32.83;;;14.70;;
51866;SDS011;52862;52.504;13.480;2023-01-25T07:12:03;31.03;;;14.43;;
51866;SDS011;52862;52.504;13.480;2023-01-25T07:14:30;29.33;;;13.43;;
51866;SDS011;52862;52.504;13.480;2023-01-25T07:16:58;34.00;;;14.37;;
51866;SDS011;52862;52.504;13.480;2023-01-25T07:19:28;33.27;;;14.17;;
51866;SDS011;52862;52.504;13.480;2023-01-25T07:21:55;30.23;;;14.47;;
51866;SDS011;52862;52.504;13.480;2023-01-25T07:24:21;41.03;;;16.20;;
51866;SDS011;52862;52.504;13.480;2023-01-25T07:26:51;36.20;;;14.33;;
51866;SDS011;52862;52.504;13.480;2023-01-25T07:29:18;34.30;;;15.90;;
51866;SDS011;52862;52.504;13.480;2023-01-25T07:31:44;37.67;;;15.73;;
51866;SDS011;52862;52.504;13.480;2023-01-25T07:34:12;35.43;;;15.13;;
51866;SDS011;52862;52.504;13.480;2023-01-25T07:36:39;35.87;;;14.03;;
51866;SDS011;52862;52.504;13.480;2023-01-25T07:39:09;37.73;;;16.13;;
51866;SDS011;52862;52.504;13.480;2023-01-25T07:41:36;43.37;;;15.80;;
51866;SDS011;52862;52.504;13.480;2023-01-25T07:44:04;33.63;;;15.23;;
51866;SDS011;52862;52.504;13.480;2023-01-25T07:46:31;32.50;;;15.53;;
51866;SDS011;52862;52.504;13.480;2023-01-25T07:48:58;36.17;;;16.10;;
51866;SDS011;52862;52.504;13.480;2023-01-25T07:51:25;51.73;;;18.87;;
51866;SDS011;52862;52.504;13.480;2023-01-25T07:53:52;44.57;;;18.17;;
51866;SDS011;52862;52.504;13.480;2023-01-25T07:56:21;44.60;;;18.57;;
51866;SDS011;52862;52.504;13.480;2023-01-25T07:58:50;51.43;;;20.70;;
51866;SDS011;52862;52.504;13.480;2023-01-25T08:01:18;55.97;;;21.17;;
51866;SDS011;52862;52.504;13.480;2023-01-25T08:03:46;40.57;;;18.23;;
51866;SDS011;52862;52.504;13.480;2023-01-25T08:06:13;51.23;;;20.97;;
51866;SDS011;52862;52.504;13.480;2023-01-25T08:08:42;63.03;;;22.83;;
51866;SDS011;52862;52.504;13.480;2023-01-25T08:11:11;45.97;;;21.60;;
51866;SDS011;52862;52.504;13.480;2023-01-25T08:13:38;51.37;;;21.90;;
51866;SDS011;52862;52.504;13.480;2023-01-25T08:16:05;54.77;;;21.73;;
51866;SDS011;52862;52.504;13.480;2023-01-25T08:18:32;55.07;;;20.70;;
51866;SDS011;52862;52.504;13.480;2023-01-25T08:21:01;48.13;;;17.33;;
51866;SDS011;52862;52.504;13.480;2023-01-25T08:23:28;61.53;;;26.20;;
51866;SDS011;52862;52.504;13.480;2023-01-25T08:25:58;69.27;;;26.97;;
51866;SDS011;52862;52.504;13.480;2023-01-25T08:28:26;63.17;;;26.67;;
51866;SDS011;52862;52.504;13.480;2023-01-25T08:30:53;82.37;;;29.73;;
51866;SDS011;52862;52.504;13.480;2023-01-25T08:33:22;82.47;;;28.53;;
51866;SDS011;52862;52.504;13.480;2023-01-25T08:35:53;70.43;;;25.73;;
51866;SDS011;52862;52.504;13.480;2023-01-25T08:38:20;81.20;;;27.63;;
51866;SDS011;52862;52.504;13.480;2023-01-25T08:40:47;73.30;;;26.23;;
51866;SDS011;52862;52.504;13.480;2023-01-25T08:43:15;74.73;;;27.53;;
51866;SDS011;52862;52.504;13.480;2023-01-25T08:45:42;75.37;;;25.90;;
51866;SDS011;52862;52.504;13.480;2023-01-25T08:48:08;68.47;;;26.63;;
51866;SDS011;52862;52.504;13.480;2023-01-25T08:50:44;62.97;;;24.53;;
51866;SDS011;52862;52.504;13.480;2023-01-25T08:53:11;70.33;;;25.77;;
51866;SDS011;52862;52.504;13.480;2023-01-25T08:55:38;74.80;;;28.10;;
51866;SDS011;52862;52.504;13.480;2023-01-25T08:58:06;58.63;;;24.20;;
51866;SDS011;52862;52.504;13.480;2023-01-25T09:00:36;57.93;;;22.67;;
51866;SDS011;52862;52.504;13.480;2023-01-25T09:03:03;63.20;;;27.00;;
51866;SDS011;52862;52.504;13.480;2023-01-25T09:05:32;70.87;;;27.20;;
51866;SDS011;52862;52.504;13.480;2023-01-25T09:07:59;71.00;;;26.00;;
51866;SDS011;52862;52.504;13.480;2023-01-25T09:10:26;65.03;;;26.63;;
51866;SDS011;52862;52.504;13.480;2023-01-25T09:12:53;65.87;;;26.23;;
51866;SDS011;52862;52.504;13.480;2023-01-25T09:15:19;70.17;;;25.57;;
51866;SDS011;52862;52.504;13.480;2023-01-25T09:17:49;59.10;;;23.77;;
51866;SDS011;52862;52.504;13.480;2023-01-25T09:20:16;60.17;;;23.80;;
51866;SDS011;52862;52.504;13.480;2023-01-25T09:22:43;62.30;;;23.80;;
51866;SDS011;52862;52.504;13.480;2023-01-25T09:25:10;63.67;;;24.10;;
51866;SDS011;52862;52.504;13.480;2023-01-25T09:27:37;51.57;;;21.23;;
51866;SDS011;52862;52.504;13.480;2023-01-25T09:30:04;55.00;;;23.40;;
51866;SDS011;52862;52.504;13.480;2023-01-25T09:32:38;57.13;;;23.57;;
51866;SDS011;52862;52.504;13.480;2023-01-25T09:35:06;62.80;;;24.27;;
51866;SDS011;52862;52.504;13.480;2023-01-25T09:37:33;61.87;;;21.03;;
51866;SDS011;52862;52.504;13.480;2023-01-25T09:40:00;58.97;;;21.93;;
51866;SDS011;52862;52.504;13.480;2023-01-25T09:42:38;54.23;;;21.00;;
51866;SDS011;52862;52.504;13.480;2023-01-25T09:45:23;58.10;;;22.43;;
51866;SDS011;52862;52.504;13.480;2023-01-25T09:47:59;61.33;;;25.00;;
51866;SDS011;52862;52.504;13.480;2023-01-25T09:50:36;60.40;;;24.27;;
51866;SDS011;52862;52.504;13.480;2023-01-25T09:55:56;55.30;;;23.70;;
51866;SDS011;52862;52.504;13.480;2023-01-25T09:58:28;61.20;;;24.13;;
51866;SDS011;52862;52.504;13.480;2023-01-25T10:01:04;70.57;;;23.30;;
51866;SDS011;52862;52.504;13.480;2023-01-25T10:04:03;57.20;;;22.70;;
51866;SDS011;52862;52.504;13.480;2023-01-25T10:06:37;57.90;;;21.67;;
51866;SDS011;52862;52.504;13.480;2023-01-25T10:09:14;70.80;;;23.20;;
51866;SDS011;52862;52.504;13.480;2023-01-25T10:11:49;56.10;;;23.27;;
51866;SDS011;52862;52.504;13.480;2023-01-25T10:14:16;66.90;;;23.33;;
51866;SDS011;52862;52.504;13.480;2023-01-25T10:16:54;46.63;;;17.93;;
51866;SDS011;52862;52.504;13.480;2023-01-25T10:19:30;52.87;;;21.10;;
51866;SDS011;52862;52.504;13.480;2023-01-25T10:22:09;42.97;;;19.50;;
51866;SDS011;52862;52.504;13.480;2023-01-25T10:24:43;53.23;;;19.73;;
51866;SDS011;52862;52.504;13.480;2023-01-25T10:27:24;66.67;;;23.43;;
51866;SDS011;52862;52.504;13.480;2023-01-25T10:29:55;59.37;;;21.57;;
51866;SDS011;52862;52.504;13.480;2023-01-25T10:32:25;66.93;;;22.57;;
51866;SDS011;52862;52.504;13.480;2023-01-25T10:34:57;60.00;;;23.77;;
51866;SDS011;52862;52.504;13.480;2023-01-25T10:37:31;63.20;;;22.80;;
51866;SDS011;52862;52.504;13.480;2023-01-25T10:40:01;62.57;;;23.83;;
51866;SDS011;52862;52.504;13.480;2023-01-25T10:42:32;57.77;;;23.30;;
51866;SDS011;52862;52.504;13.480;2023-01-25T10:45:09;56.80;;;22.30;;
51866;SDS011;52862;52.504;13.480;2023-01-25T10:47:37;57.07;;;23.60;;
51866;SDS011;52862;52.504;13.480;2023-01-25T10:50:07;63.60;;;22.83;;
51866;SDS011;52862;52.504;13.480;2023-01-25T10:52:35;51.40;;;21.33;;
51866;SDS011;52862;52.504;13.480;2023-01-25T10:55:11;58.53;;;23.27;;
51866;SDS011;52862;52.504;13.480;2023-01-25T10:57:41;64.37;;;22.30;;
51866;SDS011;52862;52.504;13.480;2023-01-25T11:00:12;58.80;;;21.50;;
51866;SDS011;52862;52.504;13.480;2023-01-25T11:02:49;54.87;;;23.17;;
51866;SDS011;52862;52.504;13.480;2023-01-25T11:05:26;66.23;;;26.57;;
51866;SDS011;52862;52.504;13.480;2023-01-25T11:07:56;69.03;;;25.87;;
51866;SDS011;52862;52.504;13.480;2023-01-25T11:10:28;58.57;;;23.60;;
51866;SDS011;52862;52.504;13.480;2023-01-25T11:15:50;64.60;;;23.60;;
51866;SDS011;52862;52.504;13.480;2023-01-25T11:18:19;56.67;;;22.90;;
51866;SDS011;52862;52.504;13.480;2023-01-25T11:20:47;57.57;;;22.73;;
51866;SDS011;52862;52.504;13.480;2023-01-25T11:23:20;58.23;;;21.97;;
51866;SDS011;52862;52.504;13.480;2023-01-25T11:25:48;68.23;;;24.60;;
51866;SDS011;52862;52.504;13.480;2023-01-25T11:28:16;62.93;;;22.73;;
51866;SDS011;52862;52.504;13.480;2023-01-25T11:30:44;60.47;;;23.80;;
51866;SDS011;52862;52.504;13.480;2023-01-25T11:33:13;63.60;;;25.73;;
51866;SDS011;52862;52.504;13.480;2023-01-25T11:35:46;67.67;;;24.80;;
51866;SDS011;52862;52.504;13.480;2023-01-25T11:38:23;79.37;;;25.90;;
51866;SDS011;52862;52.504;13.480;2023-01-25T11:40:51;64.77;;;22.93;;
51866;SDS011;52862;52.504;13.480;2023-01-25T11:43:26;65.70;;;25.67;;
51866;SDS011;52862;52.504;13.480;2023-01-25T11:46:13;66.57;;;23.53;;
51866;SDS011;52862;52.504;13.480;2023-01-25T11:49:05;68.77;;;25.13;;
51866;SDS011;52862;52.504;13.480;2023-01-25T11:51:40;75.63;;;27.93;;
51866;SDS011;52862;52.504;13.480;2023-01-25T11:54:27;75.73;;;25.57;;
51866;SDS011;52862;52.504;13.480;2023-01-25T11:57:03;71.40;;;24.97;;
51866;SDS011;52862;52.504;13.480;2023-01-25T11:59:47;77.03;;;25.70;;
51866;SDS011;52862;52.504;13.480;2023-01-25T12:02:29;80.43;;;27.37;;
51866;SDS011;52862;52.504;13.480;2023-01-25T12:05:22;80.37;;;28.27;;
51866;SDS011;52862;52.504;13.480;2023-01-25T12:08:00;71.70;;;24.70;;
51866;SDS011;52862;52.504;13.480;2023-01-25T12:10:41;79.63;;;28.17;;
51866;SDS011;52862;52.504;13.480;2023-01-25T12:13:17;75.60;;;27.97;;
51866;SDS011;52862;52.504;13.480;2023-01-25T12:15:57;67.77;;;24.60;;
51866;SDS011;52862;52.504;13.480;2023-01-25T12:21:54;76.63;;;25.97;;
51866;SDS011;52862;52.504;13.480;2023-01-25T12:24:35;80.33;;;28.13;;
51866;SDS011;52862;52.504;13.480;2023-01-25T12:27:12;80.53;;;26.77;;
51866;SDS011;52862;52.504;13.480;2023-01-25T12:29:47;76.73;;;28.50;;
51866;SDS011;52862;52.504;13.480;2023-01-25T12:32:17;88.53;;;29.30;;
51866;SDS011;52862;52.504;13.480;2023-01-25T12:34:51;84.53;;;30.17;;
51866;SDS011;52862;52.504;13.480;2023-01-25T12:37:27;72.83;;;20.63;;
51866;SDS011;52862;52.504;13.480;2023-01-25T12:40:00;71.77;;;24.27;;
51866;SDS011;52862;52.504;13.480;2023-01-25T12:42:31;80.40;;;27.50;;
51866;SDS011;52862;52.504;13.480;2023-01-25T12:45:03;61.90;;;23.53;;
51866;SDS011;52862;52.504;13.480;2023-01-25T12:47:36;62.93;;;23.60;;
51866;SDS011;52862;52.504;13.480;2023-01-25T12:50:11;66.17;;;25.53;;
51866;SDS011;52862;52.504;13.480;2023-01-25T12:52:44;80.93;;;27.00;;
51866;SDS011;52862;52.504;13.480;2023-01-25T12:55:13;62.53;;;22.30;;
51866;SDS011;52862;52.504;13.480;2023-01-25T12:57:45;84.63;;;29.87;;
51866;SDS011;52862;52.504;13.480;2023-01-25T13:00:16;85.47;;;28.97;;
51866;SDS011;52862;52.504;13.480;2023-01-25T13:02:52;82.90;;;30.97;;
51866;SDS011;52862;52.504;13.480;2023-01-25T13:05:37;88.17;;;27.00;;
51866;SDS011;52862;52.504;13.480;2023-01-25T13:11:09;78.13;;;28.67;;
51866;SDS011;52862;52.504;13.480;2023-01-25T13:13:40;78.63;;;29.00;;
51866;SDS011;52862;52.504;13.480;2023-01-25T13:16:23;73.47;;;27.77;;
51866;SDS011;52862;52.504;13.480;2023-01-25T13:19:00;80.23;;;28.80;;
51866;SDS011;52862;52.504;13.480;2023-01-25T13:21:40;81.70;;;31.13;;
51866;SDS011;52862;52.504;13.480;2023-01-25T13:24:11;76.80;;;26.97;;
51866;SDS011;52862;52.504;13.480;2023-01-25T13:26:46;83.30;;;29.60;;
51866;SDS011;52862;52.504;13.480;2023-01-25T13:32:51;77.10;;;28.57;;
51866;SDS011;52862;52.504;13.480;2023-01-25T13:35:27;81.23;;;28.33;;
51866;SDS011;52862;52.504;13.480;2023-01-25T13:38:24;85.50;;;28.27;;
51866;SDS011;52862;52.504;13.480;2023-01-25T13:41:03;71.53;;;26.00;;
51866;SDS011;52862;52.504;13.480;2023-01-25T13:43:36;81.90;;;26.53;;
51866;SDS011;52862;52.504;13.480;2023-01-25T13:46:09;74.83;;;27.50;;
51866;SDS011;52862;52.504;13.480;2023-01-25T13:48:43;60.10;;;24.53;;
51866;SDS011;52862;52.504;13.480;2023-01-25T13:51:18;75.13;;;26.63;;
51866;SDS011;52862;52.504;13.480;2023-01-25T13:53:55;69.87;;;26.87;;
51866;SDS011;52862;52.504;13.480;2023-01-25T13:56:30;64.30;;;26.80;;
51866;SDS011;52862;52.504;13.480;2023-01-25T13:58:58;75.20;;;27.63;;
51866;SDS011;52862;52.504;13.480;2023-01-25T14:01:25;72.03;;;28.23;;
51866;SDS011;52862;52.504;13.480;2023-01-25T14:03:55;83.13;;;28.73;;
51866;SDS011;52862;52.504;13.480;2023-01-25T14:06:25;78.13;;;28.70;;
51866;SDS011;52862;52.504;13.480;2023-01-25T14:08:54;77.67;;;28.37;;
51866;SDS011;52862;52.504;13.480;2023-01-25T14:11:25;71.17;;;27.40;;
51866;SDS011;52862;52.504;13.480;2023-01-25T14:13:54;63.33;;;24.30;;
51866;SDS011;52862;52.504;13.480;2023-01-25T14:16:22;69.53;;;25.37;;
51866;SDS011;52862;52.504;13.480;2023-01-25T14:18:50;58.47;;;22.70;;
51866;SDS011;52862;52.504;13.480;2023-01-25T14:21:17;70.70;;;24.67;;
51866;SDS011;52862;52.504;13.480;2023-01-25T14:23:45;70.90;;;26.37;;
51866;SDS011;52862;52.504;13.480;2023-01-25T14:26:17;64.53;;;24.37;;
51866;SDS011;52862;52.504;13.480;2023-01-25T14:28:46;75.47;;;27.23;;
51866;SDS011;52862;52.504;13.480;2023-01-25T14:31:27;68.20;;;25.50;;
51866;SDS011;52862;52.504;13.480;2023-01-25T14:33:58;69.13;;;26.50;;
51866;SDS011;52862;52.504;13.480;2023-01-25T14:36:27;80.93;;;28.40;;
51866;SDS011;52862;52.504;13.480;2023-01-25T14:38:56;69.70;;;27.30;;